sensor_id;sensor_type;location;lat;lon;timestamp;P1;durP1;ratioP1;P2;durP2;ratioP2
24090;SDS011;12272;52.426;17.100;2023-03-01T00:02:58;171.33;;;84.27;;
24090;SDS011;12272;52.426;17.100;2023-03-01T00:08:00;173.03;;;85.63;;
24090;SDS011;12272;52.426;17.100;2023-03-01T00:13:03;170.30;;;82.87;;
24090;SDS011;12272;52.426;17.100;2023-03-01T00:18:07;148.07;;;73.60;;
24090;SDS011;12272;52.426;17.100;2023-03-01T00:23:10;174.50;;;83.53;;
24090;SDS011;12272;52.426;17.100;2023-03-01T00:28:13;169.80;;;83.17;;
24090;SDS011;12272;52.426;17.100;2023-03-01T00:33:16;161.03;;;84.87;;
24090;SDS011;12272;52.426;17.100;2023-03-01T00:38:18;155.40;;;76.83;;
24090;SDS011;12272;52.426;17.100;2023-03-01T00:43:21;164.13;;;78.70;;
24090;SDS011;12272;52.426;17.100;2023-03-01T00:48:23;166.80;;;86.23;;
24090;SDS011;12272;52.426;17.100;2023-03-01T00:53:26;176.27;;;87.53;;
24090;SDS011;12272;52.426;17.100;2023-03-01T00:58:29;171.10;;;86.53;;
24090;SDS011;12272;52.426;17.100;2023-03-01T01:03:32;163.20;;;86.10;;
24090;SDS011;12272;52.426;17.100;2023-03-01T01:08:34;145.50;;;74.40;;
24090;SDS011;12272;52.426;17.100;2023-03-01T01:13:37;143.30;;;73.00;;
24090;SDS011;12272;52.426;17.100;2023-03-01T01:18:41;172.67;;;85.87;;
24090;SDS011;12272;52.426;17.100;2023-03-01T01:23:44;167.70;;;88.23;;
24090;SDS011;12272;52.426;17.100;2023-03-01T01:28:48;181.57;;;91.10;;
24090;SDS011;12272;52.426;17.100;2023-03-01T01:33:51;175.00;;;87.53;;
24090;SDS011;12272;52.426;17.100;2023-03-01T01:38:54;176.17;;;84.50;;
24090;SDS011;12272;52.426;17.100;2023-03-01T01:54:44;164.10;;;79.30;;
24090;SDS011;12272;52.426;17.100;2023-03-01T01:59:59;168.57;;;85.37;;
24090;SDS011;12272;52.426;17.100;2023-03-01T02:10:34;178.23;;;89.07;;
24090;SDS011;12272;52.426;17.100;2023-03-01T02:15:38;174.27;;;90.10;;
24090;SDS011;12272;52.426;17.100;2023-03-01T02:26:19;212.57;;;99.97;;
24090;SDS011;12272;52.426;17.100;2023-03-01T02:31:30;218.07;;;105.43;;
24090;SDS011;12272;52.426;17.100;2023-03-01T02:41:56;228.43;;;111.00;;
24090;SDS011;12272;52.426;17.100;2023-03-01T02:47:01;195.50;;;97.47;;
24090;SDS011;12272;52.426;17.100;2023-03-01T02:52:16;183.10;;;91.80;;
24090;SDS011;12272;52.426;17.100;2023-03-01T02:57:44;193.57;;;93.50;;
24090;SDS011;12272;52.426;17.100;2023-03-01T03:02:53;201.03;;;95.57;;
24090;SDS011;12272;52.426;17.100;2023-03-01T03:08:00;179.23;;;87.90;;
24090;SDS011;12272;52.426;17.100;2023-03-01T03:13:08;181.90;;;93.27;;
24090;SDS011;12272;52.426;17.100;2023-03-01T03:18:14;200.23;;;92.20;;
24090;SDS011;12272;52.426;17.100;2023-03-01T03:23:21;186.97;;;94.40;;
24090;SDS011;12272;52.426;17.100;2023-03-01T03:28:27;173.97;;;89.63;;
24090;SDS011;12272;52.426;17.100;2023-03-01T03:33:30;160.20;;;85.40;;
24090;SDS011;12272;52.426;17.100;2023-03-01T03:38:33;174.30;;;92.77;;
24090;SDS011;12272;52.426;17.100;2023-03-01T03:43:36;184.87;;;91.80;;
24090;SDS011;12272;52.426;17.100;2023-03-01T03:48:41;173.37;;;89.70;;
24090;SDS011;12272;52.426;17.100;2023-03-01T03:53:45;167.63;;;84.27;;
24090;SDS011;12272;52.426;17.100;2023-03-01T03:58:48;173.17;;;89.47;;
24090;SDS011;12272;52.426;17.100;2023-03-01T04:03:51;151.87;;;82.70;;
24090;SDS011;12272;52.426;17.100;2023-03-01T04:08:56;169.13;;;88.67;;
24090;SDS011;12272;52.426;17.100;2023-03-01T04:14:00;162.90;;;86.27;;
24090;SDS011;12272;52.426;17.100;2023-03-01T04:19:03;173.00;;;90.90;;
24090;SDS011;12272;52.426;17.100;2023-03-01T04:24:08;177.50;;;90.73;;
24090;SDS011;12272;52.426;17.100;2023-03-01T04:29:11;174.23;;;90.20;;
24090;SDS011;12272;52.426;17.100;2023-03-01T04:34:14;179.10;;;88.87;;
24090;SDS011;12272;52.426;17.100;2023-03-01T04:39:16;173.10;;;86.37;;
24090;SDS011;12272;52.426;17.100;2023-03-01T04:44:19;149.50;;;80.33;;
24090;SDS011;12272;52.426;17.100;2023-03-01T04:49:21;154.47;;;85.43;;
24090;SDS011;12272;52.426;17.100;2023-03-01T04:54:24;172.83;;;85.90;;
24090;SDS011;12272;52.426;17.100;2023-03-01T04:59:27;152.23;;;79.53;;
24090;SDS011;12272;52.426;17.100;2023-03-01T05:04:30;136.13;;;74.07;;
24090;SDS011;12272;52.426;17.100;2023-03-01T05:09:33;166.47;;;84.63;;
24090;SDS011;12272;52.426;17.100;2023-03-01T05:14:35;171.37;;;87.20;;
24090;SDS011;12272;52.426;17.100;2023-03-01T05:19:38;166.57;;;85.03;;
24090;SDS011;12272;52.426;17.100;2023-03-01T05:24:40;150.63;;;82.20;;
24090;SDS011;12272;52.426;17.100;2023-03-01T05:29:43;160.40;;;84.93;;
24090;SDS011;12272;52.426;17.100;2023-03-01T05:34:48;161.00;;;86.63;;
24090;SDS011;12272;52.426;17.100;2023-03-01T05:39:50;161.83;;;85.20;;
24090;SDS011;12272;52.426;17.100;2023-03-01T05:44:54;150.30;;;80.33;;
24090;SDS011;12272;52.426;17.100;2023-03-01T05:49:56;167.50;;;86.67;;
24090;SDS011;12272;52.426;17.100;2023-03-01T05:54:59;160.83;;;84.53;;
24090;SDS011;12272;52.426;17.100;2023-03-01T06:00:02;152.50;;;81.67;;
24090;SDS011;12272;52.426;17.100;2023-03-01T06:05:13;169.80;;;83.50;;
24090;SDS011;12272;52.426;17.100;2023-03-01T06:10:16;169.83;;;87.87;;
24090;SDS011;12272;52.426;17.100;2023-03-01T06:15:20;159.80;;;79.80;;
24090;SDS011;12272;52.426;17.100;2023-03-01T06:20:24;175.93;;;92.93;;
24090;SDS011;12272;52.426;17.100;2023-03-01T06:25:28;161.37;;;86.20;;
24090;SDS011;12272;52.426;17.100;2023-03-01T06:30:31;140.20;;;73.83;;
24090;SDS011;12272;52.426;17.100;2023-03-01T06:35:34;121.47;;;64.30;;
24090;SDS011;12272;52.426;17.100;2023-03-01T06:40:36;117.97;;;64.87;;
24090;SDS011;12272;52.426;17.100;2023-03-01T06:45:39;125.90;;;66.07;;
24090;SDS011;12272;52.426;17.100;2023-03-01T06:50:41;136.80;;;60.70;;
24090;SDS011;12272;52.426;17.100;2023-03-01T06:55:44;154.70;;;80.50;;
24090;SDS011;12272;52.426;17.100;2023-03-01T07:00:47;183.80;;;97.77;;
24090;SDS011;12272;52.426;17.100;2023-03-01T07:05:49;173.53;;;89.73;;
24090;SDS011;12272;52.426;17.100;2023-03-01T07:10:54;123.03;;;65.23;;
24090;SDS011;12272;52.426;17.100;2023-03-01T07:16:00;160.27;;;86.27;;
24090;SDS011;12272;52.426;17.100;2023-03-01T07:21:04;167.33;;;90.33;;
24090;SDS011;12272;52.426;17.100;2023-03-01T07:26:10;167.90;;;92.50;;
24090;SDS011;12272;52.426;17.100;2023-03-01T07:31:13;136.70;;;70.37;;
24090;SDS011;12272;52.426;17.100;2023-03-01T07:36:16;144.73;;;76.70;;
24090;SDS011;12272;52.426;17.100;2023-03-01T07:41:18;148.90;;;80.93;;
24090;SDS011;12272;52.426;17.100;2023-03-01T07:46:21;141.00;;;79.13;;
24090;SDS011;12272;52.426;17.100;2023-03-01T07:51:24;151.10;;;78.17;;
24090;SDS011;12272;52.426;17.100;2023-03-01T07:56:26;153.73;;;80.00;;
24090;SDS011;12272;52.426;17.100;2023-03-01T08:01:29;135.33;;;74.80;;
24090;SDS011;12272;52.426;17.100;2023-03-01T08:06:31;125.77;;;67.30;;
24090;SDS011;12272;52.426;17.100;2023-03-01T08:11:36;113.47;;;64.57;;
24090;SDS011;12272;52.426;17.100;2023-03-01T08:16:39;113.33;;;57.90;;
24090;SDS011;12272;52.426;17.100;2023-03-01T08:21:42;88.37;;;48.03;;
24090;SDS011;12272;52.426;17.100;2023-03-01T08:26:44;79.20;;;45.60;;
24090;SDS011;12272;52.426;17.100;2023-03-01T08:31:47;84.77;;;45.73;;
24090;SDS011;12272;52.426;17.100;2023-03-01T08:36:50;100.60;;;51.60;;
24090;SDS011;12272;52.426;17.100;2023-03-01T08:41:54;90.90;;;46.53;;
24090;SDS011;12272;52.426;17.100;2023-03-01T08:46:56;80.77;;;47.13;;
24090;SDS011;12272;52.426;17.100;2023-03-01T08:51:59;49.07;;;28.00;;
24090;SDS011;12272;52.426;17.100;2023-03-01T08:57:04;73.37;;;40.97;;
24090;SDS011;12272;52.426;17.100;2023-03-01T09:02:14;69.43;;;38.07;;
24090;SDS011;12272;52.426;17.100;2023-03-01T09:07:18;66.50;;;37.47;;
24090;SDS011;12272;52.426;17.100;2023-03-01T09:12:21;86.17;;;43.70;;
24090;SDS011;12272;52.426;17.100;2023-03-01T09:17:24;34.83;;;20.40;;
24090;SDS011;12272;52.426;17.100;2023-03-01T09:22:26;52.57;;;31.03;;
24090;SDS011;12272;52.426;17.100;2023-03-01T09:27:29;76.03;;;42.70;;
24090;SDS011;12272;52.426;17.100;2023-03-01T09:32:31;59.67;;;33.17;;
24090;SDS011;12272;52.426;17.100;2023-03-01T09:37:34;72.83;;;40.17;;
24090;SDS011;12272;52.426;17.100;2023-03-01T09:42:45;52.03;;;30.57;;
24090;SDS011;12272;52.426;17.100;2023-03-01T09:47:54;48.20;;;28.07;;
24090;SDS011;12272;52.426;17.100;2023-03-01T09:53:11;56.07;;;31.13;;
24090;SDS011;12272;52.426;17.100;2023-03-01T10:03:44;49.73;;;27.80;;
24090;SDS011;12272;52.426;17.100;2023-03-01T10:09:04;15.80;;;9.90;;
24090;SDS011;12272;52.426;17.100;2023-03-01T10:19:43;16.73;;;8.67;;
24090;SDS011;12272;52.426;17.100;2023-03-01T10:24:47;18.20;;;10.13;;
24090;SDS011;12272;52.426;17.100;2023-03-01T10:29:56;60.50;;;31.30;;
24090;SDS011;12272;52.426;17.100;2023-03-01T10:35:14;68.80;;;38.57;;
24090;SDS011;12272;52.426;17.100;2023-03-01T10:40:25;21.03;;;11.83;;
24090;SDS011;12272;52.426;17.100;2023-03-01T10:50:44;22.40;;;14.53;;
24090;SDS011;12272;52.426;17.100;2023-03-01T10:55:49;50.00;;;28.23;;
24090;SDS011;12272;52.426;17.100;2023-03-01T11:01:01;44.17;;;25.97;;
24090;SDS011;12272;52.426;17.100;2023-03-01T11:11:25;44.87;;;25.43;;
24090;SDS011;12272;52.426;17.100;2023-03-01T11:16:34;19.23;;;9.43;;
24090;SDS011;12272;52.426;17.100;2023-03-01T11:26:53;46.20;;;24.43;;
24090;SDS011;12272;52.426;17.100;2023-03-01T11:31:57;30.30;;;15.47;;
24090;SDS011;12272;52.426;17.100;2023-03-01T11:37:03;25.70;;;16.03;;
24090;SDS011;12272;52.426;17.100;2023-03-01T11:42:20;15.13;;;9.37;;
24090;SDS011;12272;52.426;17.100;2023-03-01T11:47:38;12.03;;;7.40;;
24090;SDS011;12272;52.426;17.100;2023-03-01T12:31:04;22.53;;;13.03;;
24090;SDS011;12272;52.426;17.100;2023-03-01T12:47:23;30.60;;;16.50;;
24090;SDS011;12272;52.426;17.100;2023-03-01T12:52:40;15.83;;;7.40;;
24090;SDS011;12272;52.426;17.100;2023-03-01T13:19:26;28.47;;;17.33;;
24090;SDS011;12272;52.426;17.100;2023-03-01T13:24:41;37.67;;;20.83;;
24090;SDS011;12272;52.426;17.100;2023-03-01T13:29:48;32.20;;;17.87;;
24090;SDS011;12272;52.426;17.100;2023-03-01T13:34:57;7.43;;;4.70;;
24090;SDS011;12272;52.426;17.100;2023-03-01T13:56:17;24.77;;;14.67;;
24090;SDS011;12272;52.426;17.100;2023-03-01T14:06:32;16.57;;;10.87;;
24090;SDS011;12272;52.426;17.100;2023-03-01T14:11:45;16.97;;;11.47;;
24090;SDS011;12272;52.426;17.100;2023-03-01T14:27:42;13.67;;;8.80;;
24090;SDS011;12272;52.426;17.100;2023-03-01T14:32:59;31.50;;;18.40;;
24090;SDS011;12272;52.426;17.100;2023-03-01T14:38:03;23.77;;;14.27;;
24090;SDS011;12272;52.426;17.100;2023-03-01T14:43:13;24.67;;;17.10;;
24090;SDS011;12272;52.426;17.100;2023-03-01T14:48:21;24.67;;;14.10;;
24090;SDS011;12272;52.426;17.100;2023-03-01T14:53:26;25.17;;;15.97;;
24090;SDS011;12272;52.426;17.100;2023-03-01T14:58:37;20.77;;;13.13;;
24090;SDS011;12272;52.426;17.100;2023-03-01T15:03:41;29.10;;;17.43;;
24090;SDS011;12272;52.426;17.100;2023-03-01T15:08:46;19.43;;;10.83;;
24090;SDS011;12272;52.426;17.100;2023-03-01T15:13:52;32.60;;;15.60;;
24090;SDS011;12272;52.426;17.100;2023-03-01T15:19:05;26.40;;;16.40;;
24090;SDS011;12272;52.426;17.100;2023-03-01T15:29:22;23.57;;;14.90;;
24090;SDS011;12272;52.426;17.100;2023-03-01T15:34:35;19.33;;;10.97;;
24090;SDS011;12272;52.426;17.100;2023-03-01T15:39:40;29.80;;;13.20;;
24090;SDS011;12272;52.426;17.100;2023-03-01T15:44:47;26.50;;;12.27;;
24090;SDS011;12272;52.426;17.100;2023-03-01T15:49:51;19.80;;;11.73;;
24090;SDS011;12272;52.426;17.100;2023-03-01T15:54:58;21.53;;;12.77;;
24090;SDS011;12272;52.426;17.100;2023-03-01T16:00:03;22.07;;;13.53;;
24090;SDS011;12272;52.426;17.100;2023-03-01T16:05:18;18.10;;;12.17;;
24090;SDS011;12272;52.426;17.100;2023-03-01T16:10:21;22.17;;;13.30;;
24090;SDS011;12272;52.426;17.100;2023-03-01T16:15:28;19.37;;;9.60;;
24090;SDS011;12272;52.426;17.100;2023-03-01T16:20:34;15.63;;;9.57;;
24090;SDS011;12272;52.426;17.100;2023-03-01T16:25:36;20.17;;;9.90;;
24090;SDS011;12272;52.426;17.100;2023-03-01T16:30:39;20.23;;;10.80;;
24090;SDS011;12272;52.426;17.100;2023-03-01T16:35:42;19.67;;;11.03;;
24090;SDS011;12272;52.426;17.100;2023-03-01T16:40:50;19.80;;;11.37;;
24090;SDS011;12272;52.426;17.100;2023-03-01T16:45:53;30.03;;;16.67;;
24090;SDS011;12272;52.426;17.100;2023-03-01T16:50:59;44.27;;;20.20;;
24090;SDS011;12272;52.426;17.100;2023-03-01T16:56:04;42.57;;;19.40;;
24090;SDS011;12272;52.426;17.100;2023-03-01T17:01:10;45.57;;;20.37;;
24090;SDS011;12272;52.426;17.100;2023-03-01T17:06:14;48.93;;;19.60;;
24090;SDS011;12272;52.426;17.100;2023-03-01T17:11:20;43.10;;;19.50;;
24090;SDS011;12272;52.426;17.100;2023-03-01T17:16:22;32.77;;;16.57;;
24090;SDS011;12272;52.426;17.100;2023-03-01T17:21:25;28.10;;;15.73;;
24090;SDS011;12272;52.426;17.100;2023-03-01T17:26:27;27.47;;;13.87;;
24090;SDS011;12272;52.426;17.100;2023-03-01T17:31:31;18.47;;;11.07;;
24090;SDS011;12272;52.426;17.100;2023-03-01T17:36:34;22.17;;;11.47;;
24090;SDS011;12272;52.426;17.100;2023-03-01T17:41:45;24.20;;;14.13;;
24090;SDS011;12272;52.426;17.100;2023-03-01T17:46:48;42.60;;;20.23;;
24090;SDS011;12272;52.426;17.100;2023-03-01T17:51:51;42.30;;;19.43;;
24090;SDS011;12272;52.426;17.100;2023-03-01T17:56:53;53.40;;;21.60;;
24090;SDS011;12272;52.426;17.100;2023-03-01T18:01:57;50.07;;;21.63;;
24090;SDS011;12272;52.426;17.100;2023-03-01T18:07:02;28.70;;;15.50;;
24090;SDS011;12272;52.426;17.100;2023-03-01T18:12:04;41.90;;;17.10;;
24090;SDS011;12272;52.426;17.100;2023-03-01T18:17:07;45.90;;;22.30;;
24090;SDS011;12272;52.426;17.100;2023-03-01T18:22:13;64.77;;;31.67;;
24090;SDS011;12272;52.426;17.100;2023-03-01T18:27:16;58.87;;;31.87;;
24090;SDS011;12272;52.426;17.100;2023-03-01T18:32:19;31.87;;;14.50;;
24090;SDS011;12272;52.426;17.100;2023-03-01T18:37:23;32.20;;;17.03;;
24090;SDS011;12272;52.426;17.100;2023-03-01T18:42:25;43.70;;;21.90;;
24090;SDS011;12272;52.426;17.100;2023-03-01T18:47:28;76.20;;;38.07;;
24090;SDS011;12272;52.426;17.100;2023-03-01T18:52:30;95.27;;;50.57;;
24090;SDS011;12272;52.426;17.100;2023-03-01T18:57:33;78.43;;;46.23;;
24090;SDS011;12272;52.426;17.100;2023-03-01T19:02:36;81.93;;;47.03;;
24090;SDS011;12272;52.426;17.100;2023-03-01T19:07:38;88.37;;;45.87;;
24090;SDS011;12272;52.426;17.100;2023-03-01T19:12:41;64.60;;;37.00;;
24090;SDS011;12272;52.426;17.100;2023-03-01T19:17:43;67.67;;;35.70;;
24090;SDS011;12272;52.426;17.100;2023-03-01T19:22:46;68.43;;;37.57;;
24090;SDS011;12272;52.426;17.100;2023-03-01T19:27:49;86.07;;;42.40;;
24090;SDS011;12272;52.426;17.100;2023-03-01T19:32:52;65.77;;;36.40;;
24090;SDS011;12272;52.426;17.100;2023-03-01T19:37:54;79.97;;;38.33;;
24090;SDS011;12272;52.426;17.100;2023-03-01T19:42:57;79.57;;;39.60;;
24090;SDS011;12272;52.426;17.100;2023-03-01T19:48:00;82.93;;;43.43;;
24090;SDS011;12272;52.426;17.100;2023-03-01T19:53:03;69.50;;;35.57;;
24090;SDS011;12272;52.426;17.100;2023-03-01T19:58:06;71.10;;;38.67;;
24090;SDS011;12272;52.426;17.100;2023-03-01T20:03:11;55.93;;;34.33;;
24090;SDS011;12272;52.426;17.100;2023-03-01T20:08:14;73.43;;;39.30;;
24090;SDS011;12272;52.426;17.100;2023-03-01T20:13:16;71.70;;;40.20;;
24090;SDS011;12272;52.426;17.100;2023-03-01T20:18:22;68.43;;;39.00;;
24090;SDS011;12272;52.426;17.100;2023-03-01T20:23:25;74.10;;;39.13;;
24090;SDS011;12272;52.426;17.100;2023-03-01T20:28:28;55.83;;;31.17;;
24090;SDS011;12272;52.426;17.100;2023-03-01T20:33:31;55.20;;;30.03;;
24090;SDS011;12272;52.426;17.100;2023-03-01T20:38:34;72.23;;;37.80;;
24090;SDS011;12272;52.426;17.100;2023-03-01T20:43:39;69.10;;;36.40;;
24090;SDS011;12272;52.426;17.100;2023-03-01T20:48:43;55.67;;;32.87;;
24090;SDS011;12272;52.426;17.100;2023-03-01T20:53:46;56.30;;;30.80;;
24090;SDS011;12272;52.426;17.100;2023-03-01T20:58:48;79.50;;;44.00;;
24090;SDS011;12272;52.426;17.100;2023-03-01T21:03:51;93.80;;;48.47;;
24090;SDS011;12272;52.426;17.100;2023-03-01T21:08:54;94.63;;;50.07;;
24090;SDS011;12272;52.426;17.100;2023-03-01T21:13:57;81.80;;;43.80;;
24090;SDS011;12272;52.426;17.100;2023-03-01T21:19:00;103.57;;;53.23;;
24090;SDS011;12272;52.426;17.100;2023-03-01T21:24:05;97.30;;;52.03;;
24090;SDS011;12272;52.426;17.100;2023-03-01T21:29:11;96.37;;;51.17;;
24090;SDS011;12272;52.426;17.100;2023-03-01T21:34:13;98.40;;;52.70;;
24090;SDS011;12272;52.426;17.100;2023-03-01T21:39:16;102.20;;;53.80;;
24090;SDS011;12272;52.426;17.100;2023-03-01T21:44:19;88.27;;;47.83;;
24090;SDS011;12272;52.426;17.100;2023-03-01T21:49:21;83.30;;;42.97;;
24090;SDS011;12272;52.426;17.100;2023-03-01T21:54:24;77.10;;;41.50;;
24090;SDS011;12272;52.426;17.100;2023-03-01T21:59:27;90.73;;;48.37;;
24090;SDS011;12272;52.426;17.100;2023-03-01T22:04:29;78.33;;;42.50;;
24090;SDS011;12272;52.426;17.100;2023-03-01T22:09:32;94.20;;;50.47;;
24090;SDS011;12272;52.426;17.100;2023-03-01T22:14:37;102.03;;;53.57;;
24090;SDS011;12272;52.426;17.100;2023-03-01T22:19:39;110.67;;;56.80;;
24090;SDS011;12272;52.426;17.100;2023-03-01T22:24:42;125.77;;;61.87;;
24090;SDS011;12272;52.426;17.100;2023-03-01T22:29:44;120.03;;;62.00;;
24090;SDS011;12272;52.426;17.100;2023-03-01T22:34:47;129.70;;;65.70;;
24090;SDS011;12272;52.426;17.100;2023-03-01T22:39:49;105.40;;;53.17;;
24090;SDS011;12272;52.426;17.100;2023-03-01T22:44:52;139.57;;;68.73;;
24090;SDS011;12272;52.426;17.100;2023-03-01T22:49:55;130.33;;;65.03;;
24090;SDS011;12272;52.426;17.100;2023-03-01T22:54:58;116.50;;;57.87;;
24090;SDS011;12272;52.426;17.100;2023-03-01T23:00:00;118.17;;;64.07;;
24090;SDS011;12272;52.426;17.100;2023-03-01T23:05:07;128.37;;;60.83;;
24090;SDS011;12272;52.426;17.100;2023-03-01T23:10:10;121.07;;;59.17;;
24090;SDS011;12272;52.426;17.100;2023-03-01T23:15:14;129.20;;;62.33;;
24090;SDS011;12272;52.426;17.100;2023-03-01T23:20:16;129.07;;;68.67;;
24090;SDS011;12272;52.426;17.100;2023-03-01T23:25:19;120.40;;;62.73;;
24090;SDS011;12272;52.426;17.100;2023-03-01T23:30:21;135.60;;;64.43;;
24090;SDS011;12272;52.426;17.100;2023-03-01T23:35:27;137.23;;;66.30;;
24090;SDS011;12272;52.426;17.100;2023-03-01T23:40:30;137.97;;;67.13;;
24090;SDS011;12272;52.426;17.100;2023-03-01T23:45:35;160.40;;;73.13;;
24090;SDS011;12272;52.426;17.100;2023-03-01T23:50:43;153.60;;;70.17;;
24090;SDS011;12272;52.426;17.100;2023-03-01T23:55:48;160.30;;;75.03;;
